createdAt,value
2022-07-27T00:02:06.315Z,18.60
2022-07-27T00:04:36.623Z,18.50
2022-07-27T00:07:06.870Z,18.60
2022-07-27T00:09:37.134Z,18.60
2022-07-27T00:12:08.546Z,18.60
2022-07-27T00:14:38.875Z,18.60
2022-07-27T00:17:11.671Z,18.60
2022-07-27T00:19:41.861Z,18.60
2022-07-27T00:22:11.938Z,18.40
2022-07-27T00:24:42.347Z,18.50
2022-07-27T00:27:12.561Z,18.40
2022-07-27T00:29:43.175Z,18.40
2022-07-27T00:32:16.147Z,18.40
2022-07-27T00:34:47.799Z,18.30
2022-07-27T00:37:18.148Z,18.30
2022-07-27T00:39:48.456Z,18.30
2022-07-27T00:42:21.206Z,18.30
2022-07-27T00:44:51.526Z,18.30
2022-07-27T00:47:24.743Z,18.10
2022-07-27T00:49:55.089Z,18.20
2022-07-27T00:52:27.203Z,18.10
2022-07-27T00:54:57.948Z,18.20
2022-07-27T00:57:30.584Z,18.20
2022-07-27T01:00:00.831Z,18.20
2022-07-27T01:02:33.854Z,18.30
2022-07-27T01:05:04.221Z,18.30
2022-07-27T01:07:36.621Z,18.20
2022-07-27T01:10:25.792Z,18.20
2022-07-27T01:12:56.803Z,18.10
2022-07-27T01:15:27.900Z,18.10
2022-07-27T01:18:00.844Z,17.90
2022-07-27T01:20:31.165Z,17.80
2022-07-27T01:23:03.893Z,17.70
2022-07-27T01:25:34.177Z,17.70
2022-07-27T01:28:04.299Z,17.70
2022-07-27T01:30:35.640Z,17.80
2022-07-27T01:33:07.797Z,18.00
2022-07-27T01:35:39.248Z,18.00
2022-07-27T01:38:14.655Z,17.80
2022-07-27T01:40:45.149Z,17.80
2022-07-27T01:43:15.324Z,17.70
2022-07-27T01:45:45.886Z,17.80
2022-07-27T01:48:16.020Z,17.80
2022-07-27T01:50:47.611Z,17.70
2022-07-27T01:53:20.921Z,17.50
2022-07-27T01:55:52.342Z,17.40
2022-07-27T01:58:22.573Z,17.40
2022-07-27T02:00:53.143Z,17.40
2022-07-27T02:03:23.484Z,17.30
2022-07-27T02:05:53.723Z,17.20
2022-07-27T02:08:26.491Z,17.20
2022-07-27T02:11:11.985Z,17.20
2022-07-27T02:13:42.435Z,17.10
2022-07-27T02:16:16.678Z,17.20
2022-07-27T02:18:48.866Z,17.20
2022-07-27T02:21:19.474Z,17.10
2022-07-27T02:23:52.217Z,17.10
2022-07-27T02:26:22.825Z,16.90
2022-07-27T02:28:53.017Z,16.90
2022-07-27T02:31:23.360Z,16.80
2022-07-27T02:33:53.585Z,16.80
2022-07-27T02:36:23.985Z,16.80
2022-07-27T02:38:56.891Z,16.70
2022-07-27T02:41:27.758Z,16.70
2022-07-27T02:43:57.980Z,16.50
2022-07-27T02:46:28.351Z,16.60
2022-07-27T02:48:58.649Z,16.70
2022-07-27T02:51:28.980Z,16.60
2022-07-27T02:56:58.017Z,16.50
2022-07-27T02:59:28.306Z,16.50
2022-07-27T03:01:58.650Z,16.60
2022-07-27T03:04:29.281Z,16.60
2022-07-27T03:06:59.586Z,16.60
2022-07-27T03:09:33.223Z,16.60
2022-07-27T03:12:03.967Z,16.60
2022-07-27T03:14:34.173Z,16.50
2022-07-27T03:17:04.980Z,16.30
2022-07-27T03:19:35.155Z,16.20
2022-07-27T03:22:05.417Z,16.10
2022-07-27T03:24:38.256Z,16.00
2022-07-27T03:27:08.583Z,15.90
2022-07-27T03:29:38.810Z,15.80
2022-07-27T03:32:10.007Z,15.80
2022-07-27T03:34:40.155Z,16.00
2022-07-27T03:37:10.481Z,15.90
2022-07-27T03:39:43.243Z,15.80
2022-07-27T03:42:13.822Z,15.80
2022-07-27T03:44:44.158Z,15.70
2022-07-27T03:47:14.507Z,15.60
2022-07-27T03:49:45.027Z,15.60
2022-07-27T03:52:17.838Z,15.50
2022-07-27T03:54:51.513Z,15.50
2022-07-27T03:57:21.777Z,15.50
2022-07-27T03:59:52.411Z,15.60
2022-07-27T04:02:22.727Z,15.50
2022-07-27T04:04:53.264Z,15.40
2022-07-27T04:07:23.865Z,15.30
2022-07-27T04:09:56.622Z,15.30
2022-07-27T04:12:27.477Z,15.30
2022-07-27T04:14:57.674Z,15.20
2022-07-27T04:17:54.736Z,15.10
2022-07-27T04:20:18.318Z,15.10
2022-07-27T04:22:48.996Z,15.20
2022-07-27T04:25:21.756Z,15.20
2022-07-27T04:27:54.720Z,15.20
2022-07-27T04:30:25.638Z,15.10
2022-07-27T04:32:56.113Z,15.20
2022-07-27T04:35:26.992Z,15.30
2022-07-27T04:37:59.838Z,15.40
2022-07-27T04:40:38.021Z,15.50
2022-07-27T04:43:08.726Z,15.40
2022-07-27T04:45:39.149Z,15.40
2022-07-27T04:48:10.492Z,15.50
2022-07-27T04:50:44.213Z,15.50
2022-07-27T04:53:15.733Z,15.50
2022-07-27T04:55:49.771Z,15.60
2022-07-27T04:58:20.275Z,15.80
2022-07-27T05:00:50.518Z,16.00
2022-07-27T05:03:21.324Z,16.10
2022-07-27T05:05:51.676Z,16.10
2022-07-27T05:08:22.451Z,16.20
2022-07-27T05:10:55.242Z,16.20
2022-07-27T05:13:25.536Z,16.20
2022-07-27T05:15:56.169Z,16.10
2022-07-27T05:18:26.740Z,16.10
2022-07-27T05:20:56.899Z,16.00
2022-07-27T05:23:27.163Z,16.20
2022-07-27T05:26:00.094Z,16.20
2022-07-27T05:28:30.401Z,16.10
2022-07-27T05:31:00.775Z,16.00
2022-07-27T05:33:31.020Z,16.20
2022-07-27T05:36:01.343Z,16.10
2022-07-27T05:38:33.800Z,16.10
2022-07-27T05:41:06.575Z,16.20
2022-07-27T05:43:37.231Z,16.30
2022-07-27T05:46:07.397Z,17.70
2022-07-27T05:48:37.749Z,19.80
2022-07-27T05:51:08.453Z,22.20
2022-07-27T05:53:39.031Z,23.90
2022-07-27T05:56:11.914Z,24.40
2022-07-27T05:58:42.145Z,24.60
2022-07-27T06:01:12.459Z,24.90
2022-07-27T06:03:42.991Z,25.00
2022-07-27T06:06:25.815Z,25.20
2022-07-27T06:08:56.676Z,25.30
2022-07-27T06:11:29.518Z,25.90
2022-07-27T06:13:59.823Z,25.90
2022-07-27T06:16:30.211Z,26.30
2022-07-27T06:19:00.492Z,26.20
2022-07-27T06:21:31.856Z,26.90
2022-07-27T06:24:02.126Z,27.00
2022-07-27T06:26:34.991Z,28.10
2022-07-27T06:29:10.583Z,28.60
2022-07-27T06:31:42.747Z,28.40
2022-07-27T06:34:14.914Z,27.80
2022-07-27T06:36:45.299Z,27.70
2022-07-27T06:39:15.899Z,27.30
2022-07-27T06:41:49.228Z,26.80
2022-07-27T06:44:19.598Z,27.50
2022-07-27T06:46:49.877Z,28.70
2022-07-27T06:49:20.098Z,28.90
2022-07-27T06:51:50.343Z,29.50
2022-07-27T06:54:20.583Z,29.00
2022-07-27T06:56:53.412Z,29.90
2022-07-27T06:59:23.529Z,28.40
2022-07-27T07:01:53.786Z,27.50
2022-07-27T07:04:25.372Z,26.90
2022-07-27T07:07:05.249Z,26.60
2022-07-27T07:09:37.239Z,25.60
2022-07-27T07:12:10.463Z,24.00
2022-07-27T07:14:40.585Z,23.30
2022-07-27T07:17:10.886Z,24.00
2022-07-27T07:19:41.159Z,25.10
2022-07-27T07:22:11.410Z,25.10
2022-07-27T07:24:41.548Z,25.90
2022-07-27T07:27:14.519Z,26.50
2022-07-27T07:29:44.705Z,26.60
2022-07-27T07:32:14.969Z,26.70
2022-07-27T07:34:45.273Z,27.00
2022-07-27T07:37:15.560Z,26.70
2022-07-27T07:39:46.174Z,26.00
2022-07-27T07:42:19.260Z,25.00
2022-07-27T07:44:49.483Z,25.70
2022-07-27T07:47:19.917Z,27.60
2022-07-27T07:49:50.158Z,29.10
2022-07-27T07:52:20.553Z,30.30
2022-07-27T07:54:50.826Z,31.30
2022-07-27T07:57:26.419Z,29.80
2022-07-27T07:59:56.686Z,28.90
2022-07-27T08:02:26.946Z,29.00
2022-07-27T08:04:59.014Z,28.10
2022-07-27T08:07:29.247Z,26.90
2022-07-27T08:09:59.452Z,24.70
2022-07-27T08:12:32.316Z,23.60
2022-07-27T08:15:02.580Z,24.50
2022-07-27T08:17:32.839Z,25.50
2022-07-27T08:20:03.466Z,27.30
2022-07-27T08:22:33.823Z,28.80
2022-07-27T08:25:03.952Z,29.10
2022-07-27T08:27:40.333Z,28.90
2022-07-27T08:30:13.676Z,28.90
2022-07-27T08:32:52.881Z,28.20
2022-07-27T08:35:24.000Z,26.50
2022-07-27T08:37:54.497Z,25.20
2022-07-27T08:40:44.859Z,23.70
2022-07-27T08:43:25.138Z,22.30
2022-07-27T08:46:01.818Z,21.40
2022-07-27T08:48:33.882Z,21.20
2022-07-27T08:51:04.295Z,22.20
2022-07-27T08:53:52.761Z,23.10
2022-07-27T08:56:24.559Z,24.40
2022-07-27T08:58:57.725Z,25.00
2022-07-27T09:01:27.927Z,24.20
2022-07-27T09:03:58.203Z,23.40
2022-07-27T09:06:44.666Z,23.10
2022-07-27T09:09:17.843Z,22.70
2022-07-27T09:12:06.292Z,23.30
2022-07-27T09:14:41.438Z,24.50
2022-07-27T09:20:21.663Z,26.20
2022-07-27T09:22:54.846Z,24.80
2022-07-27T09:26:00.455Z,23.80
2022-07-27T09:28:32.692Z,23.10
2022-07-27T09:31:13.128Z,22.70
2022-07-27T09:33:49.839Z,23.40
2022-07-27T09:36:22.650Z,23.80
2022-07-27T09:39:02.603Z,23.50
2022-07-27T09:41:45.857Z,22.50
2022-07-27T09:44:32.965Z,22.30
2022-07-27T09:47:27.294Z,22.30
2022-07-27T09:50:00.328Z,22.60
2022-07-27T09:52:33.528Z,22.60
2022-07-27T09:55:07.787Z,23.90
2022-07-27T09:57:55.985Z,25.80
2022-07-27T10:00:27.670Z,27.40
2022-07-27T10:03:00.518Z,27.30
2022-07-27T10:05:31.458Z,26.20
2022-07-27T10:08:01.651Z,25.00
2022-07-27T10:10:32.163Z,24.30
2022-07-27T10:13:02.436Z,23.90
2022-07-27T10:15:32.671Z,23.70
2022-07-27T10:18:30.586Z,23.40
2022-07-27T10:21:08.887Z,23.30
2022-07-27T10:23:40.579Z,23.60
2022-07-27T10:26:22.552Z,24.10
2022-07-27T10:28:55.738Z,24.40
2022-07-27T10:31:28.251Z,24.10
2022-07-27T10:34:03.144Z,24.30
2022-07-27T10:36:51.627Z,24.00
2022-07-27T10:39:38.124Z,24.00
2022-07-27T10:42:27.054Z,24.10
2022-07-27T10:45:05.218Z,24.20
2022-07-27T10:47:43.119Z,24.10
2022-07-27T10:50:50.801Z,23.70
2022-07-27T10:53:55.135Z,23.70
2022-07-27T10:56:48.607Z,24.50
2022-07-27T11:00:11.098Z,24.40
2022-07-27T11:02:45.048Z,24.30
2022-07-27T11:05:53.858Z,23.80
2022-07-27T11:08:36.749Z,23.70
2022-07-27T11:11:00.148Z,23.60
2022-07-27T11:13:33.067Z,24.00
2022-07-27T11:16:23.786Z,24.50
2022-07-27T11:19:05.667Z,24.60
2022-07-27T11:21:39.832Z,25.10
2022-07-27T11:24:19.014Z,25.40
2022-07-27T11:26:51.738Z,25.00
2022-07-27T11:29:25.317Z,24.60
2022-07-27T11:32:00.696Z,24.50
2022-07-27T11:34:31.826Z,24.50
2022-07-27T11:37:05.609Z,25.00
2022-07-27T11:42:40.550Z,25.70
2022-07-27T11:45:12.092Z,25.60
2022-07-27T11:47:42.346Z,25.20
2022-07-27T11:50:15.727Z,24.70
2022-07-27T11:52:45.948Z,24.10
2022-07-27T11:55:18.861Z,24.10
2022-07-27T11:57:49.047Z,24.10
2022-07-27T12:00:19.964Z,23.80
2022-07-27T12:02:53.982Z,23.60
2022-07-27T12:08:20.001Z,23.80
2022-07-27T12:11:06.924Z,24.40
2022-07-27T12:13:38.608Z,25.00
2022-07-27T12:16:09.000Z,25.30
2022-07-27T12:18:45.617Z,25.50
2022-07-27T12:21:20.237Z,25.80
2022-07-27T12:23:55.690Z,25.70
2022-07-27T12:26:32.199Z,25.80
2022-07-27T12:29:16.431Z,25.80
2022-07-27T12:31:54.434Z,25.40
2022-07-27T12:34:24.664Z,25.40
2022-07-27T12:39:51.150Z,24.80
2022-07-27T12:42:34.394Z,24.70
2022-07-27T12:45:20.888Z,24.60
2022-07-27T12:47:51.141Z,24.50
2022-07-27T12:50:30.814Z,24.20
2022-07-27T12:53:01.201Z,24.40
2022-07-27T12:55:31.484Z,24.40
2022-07-27T12:58:04.709Z,24.10
2022-07-27T13:00:34.981Z,23.60
2022-07-27T13:03:07.989Z,23.40
2022-07-27T13:05:39.841Z,23.50
2022-07-27T13:08:11.153Z,23.50
2022-07-27T13:10:44.344Z,23.50
2022-07-27T13:13:17.230Z,23.80
2022-07-27T13:15:47.481Z,24.20
2022-07-27T13:18:23.211Z,24.10
2022-07-27T13:20:54.335Z,24.40
2022-07-27T13:23:24.766Z,24.50
2022-07-27T13:25:55.644Z,24.30
2022-07-27T13:28:28.491Z,24.20
2022-07-27T13:30:58.812Z,24.10
2022-07-27T13:33:29.589Z,23.70
2022-07-27T13:36:01.171Z,23.50
2022-07-27T13:38:31.731Z,23.60
2022-07-27T13:41:02.136Z,24.00
2022-07-27T13:43:35.009Z,23.90
2022-07-27T13:46:05.551Z,23.90
2022-07-27T13:48:35.841Z,24.10
2022-07-27T13:51:06.542Z,24.20
2022-07-27T13:53:36.864Z,24.10
2022-07-27T13:56:07.725Z,24.20
2022-07-27T13:58:41.163Z,24.10
2022-07-27T14:01:11.580Z,24.00
2022-07-27T14:03:42.675Z,24.10
2022-07-27T14:06:15.148Z,24.30
2022-07-27T14:08:45.388Z,24.50
2022-07-27T14:11:16.771Z,24.50
2022-07-27T14:13:49.786Z,24.70
2022-07-27T14:16:20.088Z,24.40
2022-07-27T14:18:50.915Z,23.90
2022-07-27T14:21:21.610Z,24.10
2022-07-27T14:23:52.239Z,24.20
2022-07-27T14:26:22.498Z,24.30
2022-07-27T14:28:56.899Z,24.10
2022-07-27T14:31:27.397Z,24.00
2022-07-27T14:33:57.712Z,23.90
2022-07-27T14:36:27.854Z,23.60
2022-07-27T14:38:58.140Z,23.80
2022-07-27T14:41:28.785Z,24.20
2022-07-27T14:44:01.699Z,24.70
2022-07-27T14:46:32.003Z,24.80
2022-07-27T14:49:06.307Z,24.80
2022-07-27T14:51:37.185Z,24.70
2022-07-27T14:54:08.489Z,24.70
2022-07-27T14:56:38.725Z,24.40
2022-07-27T14:59:11.771Z,24.40
2022-07-27T15:01:42.513Z,24.50
2022-07-27T15:04:13.877Z,24.50
2022-07-27T15:06:44.054Z,24.50
2022-07-27T15:09:14.719Z,24.40
2022-07-27T15:11:45.457Z,24.30
2022-07-27T15:14:18.289Z,24.50
2022-07-27T15:16:48.535Z,24.40
2022-07-27T15:19:19.293Z,24.30
2022-07-27T15:21:50.225Z,24.10
2022-07-27T15:24:20.462Z,24.20
2022-07-27T15:26:50.626Z,23.70
2022-07-27T15:29:23.652Z,23.80
2022-07-27T15:31:53.918Z,23.80
2022-07-27T15:34:24.320Z,23.80
2022-07-27T15:36:54.503Z,24.10
2022-07-27T15:39:25.127Z,24.30
2022-07-27T15:41:55.453Z,24.40
2022-07-27T15:44:28.442Z,24.00
2022-07-27T15:46:58.939Z,24.00
2022-07-27T15:49:29.235Z,24.10
2022-07-27T15:51:59.670Z,24.10
2022-07-27T15:54:33.811Z,23.90
2022-07-27T15:57:09.673Z,23.70
2022-07-27T15:59:42.473Z,23.70
2022-07-27T16:02:12.636Z,23.90
2022-07-27T16:04:43.087Z,23.90
2022-07-27T16:07:13.343Z,23.80
2022-07-27T16:09:43.581Z,23.90
2022-07-27T16:12:16.359Z,23.90
2022-07-27T16:14:50.461Z,23.90
2022-07-27T16:17:20.677Z,24.00
2022-07-27T16:19:51.083Z,24.10
2022-07-27T16:22:21.415Z,24.00
2022-07-27T16:24:51.643Z,23.90
2022-07-27T16:27:21.905Z,23.70
2022-07-27T16:29:54.899Z,23.70
2022-07-27T16:32:25.201Z,23.50
2022-07-27T16:34:58.440Z,23.60
2022-07-27T16:37:28.790Z,23.70
2022-07-27T16:39:58.992Z,23.80
2022-07-27T16:42:29.295Z,23.80
2022-07-27T16:45:02.358Z,23.80
2022-07-27T16:47:32.633Z,23.80
2022-07-27T16:50:02.807Z,23.70
2022-07-27T16:55:27.389Z,24.00
2022-07-27T16:57:58.726Z,23.70
2022-07-27T17:00:36.519Z,23.70
2022-07-27T17:03:08.985Z,23.70
2022-07-27T17:05:39.329Z,23.70
2022-07-27T17:08:11.045Z,23.60
2022-07-27T17:10:43.335Z,23.40
2022-07-27T17:13:18.469Z,23.20
2022-07-27T17:15:52.419Z,23.00
2022-07-27T17:18:23.503Z,22.80
2022-07-27T17:20:53.641Z,22.80
2022-07-27T17:23:23.998Z,22.70
2022-07-27T17:25:54.296Z,22.50
2022-07-27T17:28:24.675Z,22.50
2022-07-27T17:30:57.416Z,22.40
2022-07-27T17:33:27.789Z,22.30
2022-07-27T17:35:57.892Z,22.40
2022-07-27T17:38:28.433Z,22.30
2022-07-27T17:40:59.226Z,22.30
2022-07-27T17:43:29.556Z,22.20
2022-07-27T17:46:02.352Z,22.20
2022-07-27T17:48:32.780Z,22.20
2022-07-27T17:51:02.997Z,22.10
2022-07-27T17:53:33.459Z,22.10
2022-07-27T17:56:04.721Z,22.00
2022-07-27T17:58:35.013Z,21.90
2022-07-27T18:01:08.792Z,21.90
2022-07-27T18:03:40.290Z,21.80
2022-07-27T18:06:10.932Z,21.80
2022-07-27T18:08:41.236Z,21.70
2022-07-27T18:11:14.611Z,21.70
2022-07-27T18:13:45.029Z,21.60
2022-07-27T18:16:17.989Z,21.50
2022-07-27T18:18:48.411Z,21.40
2022-07-27T18:21:18.596Z,21.30
2022-07-27T18:23:49.463Z,21.10
2022-07-27T18:26:19.784Z,21.00
2022-07-27T18:28:52.780Z,21.00
2022-07-27T18:31:25.734Z,21.00
2022-07-27T18:33:56.199Z,20.90
2022-07-27T18:36:26.369Z,21.00
2022-07-27T18:38:57.896Z,21.10
2022-07-27T18:41:28.393Z,21.10
2022-07-27T18:43:58.627Z,21.10
2022-07-27T18:46:31.494Z,20.90
2022-07-27T18:49:01.890Z,20.90
2022-07-27T18:51:32.318Z,20.80
2022-07-27T18:54:03.874Z,20.70
2022-07-27T18:56:34.240Z,20.60
2022-07-27T18:59:04.468Z,20.60
2022-07-27T19:01:37.541Z,20.50
2022-07-27T19:04:08.307Z,20.50
2022-07-27T19:06:38.447Z,20.50
2022-07-27T19:09:10.367Z,20.40
2022-07-27T19:11:40.715Z,20.30
2022-07-27T19:14:10.944Z,20.20
2022-07-27T19:16:43.870Z,20.10
2022-07-27T19:19:16.889Z,20.10
2022-07-27T19:21:51.398Z,20.00
2022-07-27T19:24:21.716Z,20.00
2022-07-27T19:26:52.203Z,19.80
2022-07-27T19:29:23.015Z,19.70
2022-07-27T19:31:55.868Z,19.70
2022-07-27T19:34:26.750Z,19.60
2022-07-27T19:36:56.953Z,19.40
2022-07-27T19:39:27.157Z,19.30
2022-07-27T19:42:17.418Z,19.30
2022-07-27T19:44:47.725Z,19.20
2022-07-27T19:47:20.691Z,19.20
2022-07-27T19:49:51.251Z,19.10
2022-07-27T19:52:21.495Z,19.10
2022-07-27T19:54:51.696Z,19.10
2022-07-27T19:57:23.045Z,19.00
2022-07-27T20:02:51.018Z,18.90
2022-07-27T20:05:21.345Z,18.90
2022-07-27T20:07:51.659Z,18.80
2022-07-27T20:10:23.200Z,18.80
2022-07-27T20:12:53.400Z,18.70
2022-07-27T20:15:23.626Z,18.60
2022-07-27T20:17:56.604Z,18.60
2022-07-27T20:20:28.196Z,18.50
2022-07-27T20:22:58.803Z,18.40
2022-07-27T20:25:29.049Z,18.40
2022-07-27T20:27:59.868Z,18.30
2022-07-27T20:30:30.698Z,18.30
2022-07-27T20:33:03.651Z,18.20
2022-07-27T20:35:37.845Z,18.10
2022-07-27T20:38:08.323Z,18.20
2022-07-27T20:40:38.536Z,18.20
2022-07-27T20:43:08.850Z,18.00
2022-07-27T20:45:39.111Z,17.90
2022-07-27T20:48:12.167Z,17.80
2022-07-27T20:50:42.283Z,17.80
2022-07-27T20:53:12.815Z,17.80
2022-07-27T20:55:44.159Z,17.70
2022-07-27T20:58:14.507Z,17.60
2022-07-27T21:00:44.788Z,17.60
2022-07-27T21:03:17.634Z,17.50
2022-07-27T21:05:47.803Z,17.50
2022-07-27T21:08:18.074Z,17.50
2022-07-27T21:10:48.336Z,17.50
2022-07-27T21:13:19.748Z,17.50
2022-07-27T21:15:49.907Z,17.40
2022-07-27T21:18:22.763Z,17.30
2022-07-27T21:20:53.086Z,17.20
2022-07-27T21:23:35.666Z,17.10
2022-07-27T21:26:05.902Z,17.00
2022-07-27T21:28:37.449Z,17.00
2022-07-27T21:31:11.662Z,17.00
2022-07-27T21:33:44.528Z,17.00
2022-07-27T21:36:14.927Z,16.90
2022-07-27T21:38:45.143Z,16.90
2022-07-27T21:41:17.635Z,16.90
2022-07-27T21:43:47.796Z,16.80
2022-07-27T21:46:18.227Z,16.80
2022-07-27T21:48:51.350Z,16.80
2022-07-27T21:51:21.911Z,16.80
2022-07-27T21:53:53.406Z,16.80
2022-07-27T21:56:23.676Z,16.80
2022-07-27T21:58:53.894Z,16.70
2022-07-27T22:01:24.287Z,16.60
2022-07-27T22:03:57.184Z,16.60
2022-07-27T22:06:27.495Z,16.30
2022-07-27T22:08:57.803Z,16.20
2022-07-27T22:11:28.108Z,16.20
2022-07-27T22:13:58.384Z,16.10
2022-07-27T22:16:28.784Z,15.90
2022-07-27T22:19:01.639Z,16.00
2022-07-27T22:21:32.297Z,15.90
2022-07-27T22:24:02.420Z,15.90
2022-07-27T22:26:32.776Z,15.70
2022-07-27T22:29:03.063Z,15.70
2022-07-27T22:31:33.424Z,15.60
2022-07-27T22:34:06.209Z,15.60
2022-07-27T22:36:36.691Z,15.50
2022-07-27T22:39:07.330Z,15.40
2022-07-27T22:41:37.564Z,15.30
2022-07-27T22:44:08.175Z,15.30
2022-07-27T22:46:38.441Z,15.20
2022-07-27T22:49:11.519Z,15.20
2022-07-27T22:51:50.242Z,15.20
2022-07-27T22:54:23.274Z,15.20
2022-07-27T22:56:53.656Z,15.20
2022-07-27T22:59:23.917Z,15.30
2022-07-27T23:01:54.148Z,15.20
2022-07-27T23:04:26.939Z,15.20
2022-07-27T23:06:57.263Z,15.20
2022-07-27T23:09:27.679Z,15.30
2022-07-27T23:11:58.373Z,15.30
2022-07-27T23:14:30.025Z,15.20
2022-07-27T23:17:01.251Z,15.10
2022-07-27T23:19:34.028Z,15.20
2022-07-27T23:22:04.310Z,15.10
2022-07-27T23:24:37.505Z,15.10
2022-07-27T23:27:11.389Z,15.10
2022-07-27T23:29:41.578Z,15.10
2022-07-27T23:32:11.823Z,15.00
2022-07-27T23:34:44.690Z,15.10
2022-07-27T23:37:15.135Z,15.10
2022-07-27T23:39:45.304Z,15.10
2022-07-27T23:45:00.071Z,15.00
2022-07-27T23:47:30.305Z,15.00
2022-07-27T23:50:03.150Z,15.00
2022-07-27T23:52:33.352Z,15.00
2022-07-27T23:55:04.784Z,15.00
2022-07-27T23:57:34.962Z,15.00
